sensor_id;sensor_type;location;lat;lon;timestamp;pressure;altitude;pressure_sealevel;temperature;humidity
22181;BME280;11256;50.830;12.834;2023-04-10T00:03:29;98454.22;;;8.30;50.19
22181;BME280;11256;50.830;12.834;2023-04-10T00:08:30;98456.84;;;8.25;50.46
22181;BME280;11256;50.830;12.834;2023-04-10T00:13:31;98445.84;;;8.15;50.37
22181;BME280;11256;50.830;12.834;2023-04-10T00:18:31;98428.00;;;7.97;50.25
22181;BME280;11256;50.830;12.834;2023-04-10T00:23:31;98432.00;;;7.95;50.53
22181;BME280;11256;50.830;12.834;2023-04-10T00:28:33;98431.88;;;7.85;50.74
22181;BME280;11256;50.830;12.834;2023-04-10T00:33:37;98428.03;;;7.81;50.54
22181;BME280;11256;50.830;12.834;2023-04-10T00:38:37;98417.56;;;7.68;50.38
22181;BME280;11256;50.830;12.834;2023-04-10T00:43:37;98417.72;;;7.61;50.64
22181;BME280;11256;50.830;12.834;2023-04-10T00:48:38;98423.88;;;7.45;51.44
22181;BME280;11256;50.830;12.834;2023-04-10T00:53:38;98419.78;;;7.43;50.99
22181;BME280;11256;50.830;12.834;2023-04-10T00:58:38;98420.88;;;7.42;51.19
22181;BME280;11256;50.830;12.834;2023-04-10T01:03:40;98436.63;;;7.33;50.94
22181;BME280;11256;50.830;12.834;2023-04-10T01:09:16;98433.50;;;7.25;51.08
22181;BME280;11256;50.830;12.834;2023-04-10T01:19:50;98432.13;;;7.11;51.16
22181;BME280;11256;50.830;12.834;2023-04-10T01:25:23;98427.13;;;7.03;51.12
22181;BME280;11256;50.830;12.834;2023-04-10T01:30:31;98431.25;;;6.94;51.51
22181;BME280;11256;50.830;12.834;2023-04-10T01:35:34;98428.91;;;6.86;51.54
22181;BME280;11256;50.830;12.834;2023-04-10T01:40:38;98423.19;;;6.82;51.78
22181;BME280;11256;50.830;12.834;2023-04-10T01:45:39;98418.41;;;6.73;51.57
22181;BME280;11256;50.830;12.834;2023-04-10T01:50:44;98417.75;;;6.66;52.01
22181;BME280;11256;50.830;12.834;2023-04-10T01:55:45;98415.72;;;6.61;51.73
22181;BME280;11256;50.830;12.834;2023-04-10T02:00:47;98427.94;;;6.52;52.01
22181;BME280;11256;50.830;12.834;2023-04-10T02:06:10;98431.09;;;6.49;51.90
22181;BME280;11256;50.830;12.834;2023-04-10T02:11:20;98423.16;;;6.43;52.04
22181;BME280;11256;50.830;12.834;2023-04-10T02:16:24;98412.84;;;6.40;51.63
22181;BME280;11256;50.830;12.834;2023-04-10T02:21:26;98416.59;;;6.39;51.93
22181;BME280;11256;50.830;12.834;2023-04-10T02:26:28;98414.75;;;6.28;51.85
22181;BME280;11256;50.830;12.834;2023-04-10T02:31:28;98389.72;;;6.16;52.24
22181;BME280;11256;50.830;12.834;2023-04-10T02:36:28;98418.25;;;6.17;51.67
22181;BME280;11256;50.830;12.834;2023-04-10T02:41:29;98414.84;;;6.10;51.93
22181;BME280;11256;50.830;12.834;2023-04-10T02:46:31;98414.75;;;6.05;52.02
22181;BME280;11256;50.830;12.834;2023-04-10T02:51:35;98418.13;;;6.00;52.53
22181;BME280;11256;50.830;12.834;2023-04-10T02:56:36;98415.31;;;5.95;52.19
22181;BME280;11256;50.830;12.834;2023-04-10T03:01:36;98396.16;;;5.80;52.18
22181;BME280;11256;50.830;12.834;2023-04-10T03:06:38;98402.31;;;5.81;52.00
22181;BME280;11256;50.830;12.834;2023-04-10T03:11:39;98407.91;;;5.68;52.25
22181;BME280;11256;50.830;12.834;2023-04-10T03:16:39;98416.09;;;5.73;52.27
22181;BME280;11256;50.830;12.834;2023-04-10T03:21:40;98405.53;;;5.60;52.43
22181;BME280;11256;50.830;12.834;2023-04-10T03:26:40;98397.13;;;5.56;52.50
22181;BME280;11256;50.830;12.834;2023-04-10T03:31:41;98413.03;;;5.58;52.64
22181;BME280;11256;50.830;12.834;2023-04-10T03:36:41;98407.50;;;5.53;52.94
22181;BME280;11256;50.830;12.834;2023-04-10T03:41:42;98415.31;;;5.43;52.56
22181;BME280;11256;50.830;12.834;2023-04-10T03:46:42;98390.00;;;5.21;52.74
22181;BME280;11256;50.830;12.834;2023-04-10T03:51:43;98404.78;;;5.30;53.03
22181;BME280;11256;50.830;12.834;2023-04-10T03:56:43;98428.25;;;5.34;53.05
22181;BME280;11256;50.830;12.834;2023-04-10T04:01:44;98420.75;;;5.25;52.85
22181;BME280;11256;50.830;12.834;2023-04-10T04:06:45;98424.38;;;5.19;52.82
22181;BME280;11256;50.830;12.834;2023-04-10T04:11:58;98413.78;;;5.06;53.22
22181;BME280;11256;50.830;12.834;2023-04-10T04:17:17;98418.72;;;5.09;53.27
22181;BME280;11256;50.830;12.834;2023-04-10T04:22:33;98422.09;;;5.04;53.14
22181;BME280;11256;50.830;12.834;2023-04-10T04:27:49;98418.44;;;4.99;53.18
22181;BME280;11256;50.830;12.834;2023-04-10T04:33:16;98407.88;;;4.86;53.61
22181;BME280;11256;50.830;12.834;2023-04-10T04:38:26;98415.78;;;4.81;53.25
22181;BME280;11256;50.830;12.834;2023-04-10T04:43:41;98428.16;;;4.82;53.54
22181;BME280;11256;50.830;12.834;2023-04-10T04:49:00;98441.00;;;4.80;53.28
22181;BME280;11256;50.830;12.834;2023-04-10T04:54:08;98443.06;;;4.78;53.57
22181;BME280;11256;50.830;12.834;2023-04-10T04:59:14;98448.00;;;4.81;53.55
22181;BME280;11256;50.830;12.834;2023-04-10T05:04:33;98447.53;;;4.84;53.49
22181;BME280;11256;50.830;12.834;2023-04-10T05:09:45;98448.28;;;4.91;54.88
22181;BME280;11256;50.830;12.834;2023-04-10T05:15:06;98455.41;;;5.15;55.62
22181;BME280;11256;50.830;12.834;2023-04-10T05:20:27;98431.81;;;5.17;56.40
22181;BME280;11256;50.830;12.834;2023-04-10T05:25:36;98463.03;;;5.59;58.13
22181;BME280;11256;50.830;12.834;2023-04-10T05:31:03;98461.75;;;5.91;60.58
22181;BME280;11256;50.830;12.834;2023-04-10T05:36:34;98446.19;;;6.27;61.37
22181;BME280;11256;50.830;12.834;2023-04-10T05:41:42;98448.41;;;6.65;61.92
22181;BME280;11256;50.830;12.834;2023-04-10T05:47:01;98443.66;;;6.95;62.33
22181;BME280;11256;50.830;12.834;2023-04-10T05:52:22;98445.78;;;7.49;62.20
22181;BME280;11256;50.830;12.834;2023-04-10T05:57:47;98451.88;;;7.89;61.52
22181;BME280;11256;50.830;12.834;2023-04-10T06:03:21;98461.25;;;8.14;60.39
22181;BME280;11256;50.830;12.834;2023-04-10T06:08:27;98435.88;;;8.32;61.12
22181;BME280;11256;50.830;12.834;2023-04-10T06:13:28;98448.91;;;8.73;61.23
22181;BME280;11256;50.830;12.834;2023-04-10T06:18:32;98446.34;;;9.04;59.46
22181;BME280;11256;50.830;12.834;2023-04-10T06:23:32;98458.31;;;9.35;58.70
22181;BME280;11256;50.830;12.834;2023-04-10T06:28:32;98448.19;;;9.47;58.53
22181;BME280;11256;50.830;12.834;2023-04-10T06:33:36;98444.91;;;9.71;59.01
22181;BME280;11256;50.830;12.834;2023-04-10T06:38:38;98429.50;;;10.03;59.86
22181;BME280;11256;50.830;12.834;2023-04-10T06:43:38;98407.31;;;10.84;59.34
22181;BME280;11256;50.830;12.834;2023-04-10T06:48:39;98419.84;;;11.97;59.18
22181;BME280;11256;50.830;12.834;2023-04-10T06:53:39;98429.09;;;13.29;57.70
22181;BME280;11256;50.830;12.834;2023-04-10T06:58:40;98425.38;;;14.41;54.63
22181;BME280;11256;50.830;12.834;2023-04-10T07:03:40;98416.22;;;15.49;52.74
22181;BME280;11256;50.830;12.834;2023-04-10T07:08:40;98394.31;;;16.42;50.80
22181;BME280;11256;50.830;12.834;2023-04-10T07:13:41;98410.81;;;17.23;48.40
22181;BME280;11256;50.830;12.834;2023-04-10T07:18:41;98406.03;;;17.91;46.90
22181;BME280;11256;50.830;12.834;2023-04-10T07:23:41;98415.00;;;18.93;46.90
22181;BME280;11256;50.830;12.834;2023-04-10T07:28:42;98414.16;;;19.96;44.87
22181;BME280;11256;50.830;12.834;2023-04-10T07:33:44;98411.66;;;20.79;45.10
22181;BME280;11256;50.830;12.834;2023-04-10T07:38:44;98407.41;;;21.65;43.95
22181;BME280;11256;50.830;12.834;2023-04-10T07:43:45;98405.13;;;22.82;41.43
22181;BME280;11256;50.830;12.834;2023-04-10T07:48:45;98396.25;;;23.45;39.02
22181;BME280;11256;50.830;12.834;2023-04-10T07:53:49;98399.41;;;24.07;39.80
22181;BME280;11256;50.830;12.834;2023-04-10T07:58:50;98402.72;;;24.52;37.96
22181;BME280;11256;50.830;12.834;2023-04-10T08:03:50;98402.84;;;25.14;37.12
22181;BME280;11256;50.830;12.834;2023-04-10T08:08:51;98400.22;;;25.33;36.17
22181;BME280;11256;50.830;12.834;2023-04-10T08:13:57;98385.66;;;25.89;36.12
22181;BME280;11256;50.830;12.834;2023-04-10T08:18:58;98390.03;;;26.06;36.54
22181;BME280;11256;50.830;12.834;2023-04-10T08:24:00;98378.34;;;26.16;35.02
22181;BME280;11256;50.830;12.834;2023-04-10T08:29:01;98381.19;;;26.76;34.84
22181;BME280;11256;50.830;12.834;2023-04-10T08:34:01;98384.88;;;27.48;34.11
22181;BME280;11256;50.830;12.834;2023-04-10T08:39:03;98363.00;;;27.76;32.40
22181;BME280;11256;50.830;12.834;2023-04-10T08:44:03;98357.03;;;27.74;33.51
22181;BME280;11256;50.830;12.834;2023-04-10T08:49:05;98360.94;;;28.25;32.50
22181;BME280;11256;50.830;12.834;2023-04-10T08:54:07;98363.00;;;28.31;31.58
22181;BME280;11256;50.830;12.834;2023-04-10T08:59:10;98352.19;;;27.19;29.15
22181;BME280;11256;50.830;12.834;2023-04-10T09:04:10;98341.81;;;27.42;30.21
22181;BME280;11256;50.830;12.834;2023-04-10T09:09:11;98334.63;;;27.93;30.22
22181;BME280;11256;50.830;12.834;2023-04-10T09:14:25;98325.47;;;27.66;30.32
22181;BME280;11256;50.830;12.834;2023-04-10T09:19:32;98331.09;;;28.29;29.26
22181;BME280;11256;50.830;12.834;2023-04-10T09:24:40;98324.81;;;27.76;29.08
22181;BME280;11256;50.830;12.834;2023-04-10T09:29:45;98310.63;;;27.59;29.21
22181;BME280;11256;50.830;12.834;2023-04-10T09:34:52;98311.13;;;27.16;29.06
22181;BME280;11256;50.830;12.834;2023-04-10T09:39:53;98299.69;;;26.98;30.02
22181;BME280;11256;50.830;12.834;2023-04-10T09:44:54;98307.34;;;26.82;31.21
22181;BME280;11256;50.830;12.834;2023-04-10T09:49:59;98276.69;;;25.42;29.13
22181;BME280;11256;50.830;12.834;2023-04-10T09:55:02;98277.38;;;25.74;29.65
22181;BME280;11256;50.830;12.834;2023-04-10T10:00:04;98276.13;;;24.87;30.46
22181;BME280;11256;50.830;12.834;2023-04-10T10:05:10;98271.31;;;24.84;31.65
22181;BME280;11256;50.830;12.834;2023-04-10T10:10:10;98250.41;;;24.43;32.64
22181;BME280;11256;50.830;12.834;2023-04-10T10:15:33;98255.88;;;23.97;33.14
22181;BME280;11256;50.830;12.834;2023-04-10T10:20:35;98231.41;;;23.08;32.37
22181;BME280;11256;50.830;12.834;2023-04-10T10:25:38;98222.44;;;22.75;33.06
22181;BME280;11256;50.830;12.834;2023-04-10T10:30:39;98209.41;;;21.62;33.09
22181;BME280;11256;50.830;12.834;2023-04-10T10:35:41;98203.25;;;21.04;34.01
22181;BME280;11256;50.830;12.834;2023-04-10T10:41:00;98185.75;;;21.41;34.86
22181;BME280;11256;50.830;12.834;2023-04-10T10:46:06;98195.84;;;20.67;33.25
22181;BME280;11256;50.830;12.834;2023-04-10T10:51:08;98183.53;;;20.35;33.97
22181;BME280;11256;50.830;12.834;2023-04-10T11:01:18;98156.00;;;19.81;35.82
22181;BME280;11256;50.830;12.834;2023-04-10T11:06:21;98171.97;;;19.50;33.71
22181;BME280;11256;50.830;12.834;2023-04-10T11:11:56;98161.81;;;19.96;38.00
22181;BME280;11256;50.830;12.834;2023-04-10T11:16:58;98141.44;;;19.89;34.54
22181;BME280;11256;50.830;12.834;2023-04-10T11:22:05;98140.13;;;19.95;35.48
22181;BME280;11256;50.830;12.834;2023-04-10T11:27:08;98141.28;;;21.75;35.72
22181;BME280;11256;50.830;12.834;2023-04-10T11:32:08;98130.59;;;20.30;34.56
22181;BME280;11256;50.830;12.834;2023-04-10T11:37:09;98124.97;;;21.94;34.83
22181;BME280;11256;50.830;12.834;2023-04-10T11:42:09;98128.09;;;21.48;34.88
22181;BME280;11256;50.830;12.834;2023-04-10T11:47:13;98118.78;;;22.21;32.99
22181;BME280;11256;50.830;12.834;2023-04-10T11:52:23;98091.81;;;20.84;31.98
22181;BME280;11256;50.830;12.834;2023-04-10T11:57:33;98100.44;;;20.62;34.31
22181;BME280;11256;50.830;12.834;2023-04-10T12:02:33;98110.84;;;19.02;30.42
22181;BME280;11256;50.830;12.834;2023-04-10T12:07:34;98105.19;;;18.81;30.72
22181;BME280;11256;50.830;12.834;2023-04-10T12:12:35;98098.56;;;18.57;32.54
22181;BME280;11256;50.830;12.834;2023-04-10T12:17:36;98084.31;;;19.06;32.90
22181;BME280;11256;50.830;12.834;2023-04-10T12:22:37;98088.84;;;18.51;32.04
22181;BME280;11256;50.830;12.834;2023-04-10T12:27:37;98093.25;;;18.52;32.88
22181;BME280;11256;50.830;12.834;2023-04-10T12:32:38;98078.34;;;19.04;33.00
22181;BME280;11256;50.830;12.834;2023-04-10T12:37:49;98071.09;;;18.40;32.72
22181;BME280;11256;50.830;12.834;2023-04-10T12:42:50;98080.47;;;19.07;32.88
22181;BME280;11256;50.830;12.834;2023-04-10T12:47:50;98068.16;;;20.42;36.65
22181;BME280;11256;50.830;12.834;2023-04-10T12:53:03;98053.41;;;19.89;34.03
22181;BME280;11256;50.830;12.834;2023-04-10T12:58:19;98036.72;;;19.48;33.02
22181;BME280;11256;50.830;12.834;2023-04-10T13:03:19;98030.84;;;19.03;33.68
22181;BME280;11256;50.830;12.834;2023-04-10T13:08:21;98036.19;;;18.83;35.86
22181;BME280;11256;50.830;12.834;2023-04-10T13:13:21;98016.53;;;19.44;34.61
22181;BME280;11256;50.830;12.834;2023-04-10T13:18:22;98015.38;;;18.73;34.79
22181;BME280;11256;50.830;12.834;2023-04-10T13:23:22;97998.28;;;18.42;34.37
22181;BME280;11256;50.830;12.834;2023-04-10T13:28:22;98001.66;;;20.03;36.53
22181;BME280;11256;50.830;12.834;2023-04-10T13:33:23;97967.50;;;20.04;33.65
22181;BME280;11256;50.830;12.834;2023-04-10T13:38:24;97975.06;;;20.15;33.91
22181;BME280;11256;50.830;12.834;2023-04-10T13:43:24;97958.13;;;18.92;34.46
22181;BME280;11256;50.830;12.834;2023-04-10T13:48:25;97937.56;;;18.52;34.64
22181;BME280;11256;50.830;12.834;2023-04-10T13:53:25;97941.59;;;18.55;35.04
22181;BME280;11256;50.830;12.834;2023-04-10T13:58:25;97939.19;;;21.09;35.80
22181;BME280;11256;50.830;12.834;2023-04-10T14:03:29;97931.59;;;19.51;34.69
22181;BME280;11256;50.830;12.834;2023-04-10T14:08:30;97927.22;;;19.79;34.10
22181;BME280;11256;50.830;12.834;2023-04-10T14:13:30;97914.16;;;19.47;34.78
22181;BME280;11256;50.830;12.834;2023-04-10T14:18:31;97903.28;;;19.50;34.85
22181;BME280;11256;50.830;12.834;2023-04-10T14:23:31;97892.06;;;18.89;34.97
22181;BME280;11256;50.830;12.834;2023-04-10T14:28:32;97888.00;;;20.11;37.68
22181;BME280;11256;50.830;12.834;2023-04-10T14:33:32;97870.06;;;20.05;35.47
22181;BME280;11256;50.830;12.834;2023-04-10T14:38:33;97881.19;;;20.29;37.33
22181;BME280;11256;50.830;12.834;2023-04-10T14:43:36;97859.91;;;19.27;33.60
22181;BME280;11256;50.830;12.834;2023-04-10T14:48:36;97861.22;;;18.92;34.64
22181;BME280;11256;50.830;12.834;2023-04-10T14:53:38;97840.59;;;19.06;34.09
22181;BME280;11256;50.830;12.834;2023-04-10T14:58:38;97856.75;;;20.60;38.03
22181;BME280;11256;50.830;12.834;2023-04-10T15:03:38;97861.41;;;21.40;37.57
22181;BME280;11256;50.830;12.834;2023-04-10T15:08:39;97848.69;;;20.02;32.69
22181;BME280;11256;50.830;12.834;2023-04-10T15:13:39;97849.06;;;19.80;33.98
22181;BME280;11256;50.830;12.834;2023-04-10T15:18:39;97838.50;;;19.82;37.70
22181;BME280;11256;50.830;12.834;2023-04-10T15:23:40;97834.59;;;21.64;36.15
22181;BME280;11256;50.830;12.834;2023-04-10T15:28:41;97815.16;;;22.40;34.10
22181;BME280;11256;50.830;12.834;2023-04-10T15:33:42;97825.19;;;22.60;32.84
22181;BME280;11256;50.830;12.834;2023-04-10T15:38:42;97815.81;;;21.94;30.87
22181;BME280;11256;50.830;12.834;2023-04-10T15:43:43;97788.69;;;22.39;33.18
22181;BME280;11256;50.830;12.834;2023-04-10T15:48:43;97790.09;;;22.33;32.62
22181;BME280;11256;50.830;12.834;2023-04-10T15:53:45;97786.31;;;22.10;33.18
22181;BME280;11256;50.830;12.834;2023-04-10T15:58:45;97781.81;;;21.90;34.03
22181;BME280;11256;50.830;12.834;2023-04-10T16:03:45;97776.13;;;21.59;34.02
22181;BME280;11256;50.830;12.834;2023-04-10T16:08:50;97773.34;;;21.71;32.80
22181;BME280;11256;50.830;12.834;2023-04-10T16:13:50;97748.22;;;21.48;33.64
22181;BME280;11256;50.830;12.834;2023-04-10T16:18:51;97766.88;;;21.67;33.26
22181;BME280;11256;50.830;12.834;2023-04-10T16:23:53;97760.25;;;21.56;34.11
22181;BME280;11256;50.830;12.834;2023-04-10T16:28:53;97745.16;;;21.38;33.75
22181;BME280;11256;50.830;12.834;2023-04-10T16:33:53;97757.22;;;21.33;32.65
22181;BME280;11256;50.830;12.834;2023-04-10T16:38:54;97745.34;;;21.05;32.26
22181;BME280;11256;50.830;12.834;2023-04-10T16:43:54;97740.84;;;21.01;34.24
22181;BME280;11256;50.830;12.834;2023-04-10T16:48:56;97721.09;;;20.87;34.10
22181;BME280;11256;50.830;12.834;2023-04-10T16:53:56;97728.09;;;20.84;34.48
22181;BME280;11256;50.830;12.834;2023-04-10T16:58:57;97721.31;;;20.58;34.09
22181;BME280;11256;50.830;12.834;2023-04-10T17:03:57;97724.06;;;20.58;34.53
22181;BME280;11256;50.830;12.834;2023-04-10T17:08:57;97720.63;;;20.49;35.29
22181;BME280;11256;50.830;12.834;2023-04-10T17:13:58;97709.25;;;20.26;35.32
22181;BME280;11256;50.830;12.834;2023-04-10T17:18:58;97701.03;;;20.06;35.52
22181;BME280;11256;50.830;12.834;2023-04-10T17:23:58;97697.53;;;19.73;35.59
22181;BME280;11256;50.830;12.834;2023-04-10T17:28:59;97703.97;;;19.56;35.79
22181;BME280;11256;50.830;12.834;2023-04-10T17:33:59;97690.47;;;19.31;35.76
22181;BME280;11256;50.830;12.834;2023-04-10T17:38:59;97689.44;;;19.15;36.46
22181;BME280;11256;50.830;12.834;2023-04-10T17:44:00;97675.94;;;18.81;36.50
22181;BME280;11256;50.830;12.834;2023-04-10T17:49:02;97669.31;;;18.61;36.68
22181;BME280;11256;50.830;12.834;2023-04-10T17:54:03;97684.91;;;18.40;37.01
22181;BME280;11256;50.830;12.834;2023-04-10T17:59:03;97679.47;;;18.23;36.55
22181;BME280;11256;50.830;12.834;2023-04-10T18:04:04;97678.91;;;18.01;37.41
22181;BME280;11256;50.830;12.834;2023-04-10T18:09:04;97657.91;;;17.67;35.83
22181;BME280;11256;50.830;12.834;2023-04-10T18:14:05;97664.53;;;17.58;37.85
22181;BME280;11256;50.830;12.834;2023-04-10T18:19:05;97674.88;;;17.27;37.73
22181;BME280;11256;50.830;12.834;2023-04-10T18:24:05;97656.78;;;17.26;38.42
22181;BME280;11256;50.830;12.834;2023-04-10T18:29:06;97655.03;;;16.70;37.12
22181;BME280;11256;50.830;12.834;2023-04-10T18:34:06;97643.59;;;16.77;38.34
22181;BME280;11256;50.830;12.834;2023-04-10T18:39:07;97650.34;;;16.71;38.94
22181;BME280;11256;50.830;12.834;2023-04-10T18:44:07;97634.22;;;16.52;39.32
22181;BME280;11256;50.830;12.834;2023-04-10T18:49:07;97651.78;;;16.51;39.51
22181;BME280;11256;50.830;12.834;2023-04-10T18:54:08;97631.75;;;16.34;39.13
22181;BME280;11256;50.830;12.834;2023-04-10T18:59:08;97623.22;;;16.27;40.35
22181;BME280;11256;50.830;12.834;2023-04-10T19:04:08;97633.97;;;16.23;40.49
22181;BME280;11256;50.830;12.834;2023-04-10T19:09:09;97631.06;;;16.11;40.60
22181;BME280;11256;50.830;12.834;2023-04-10T19:14:09;97626.69;;;16.02;40.89
22181;BME280;11256;50.830;12.834;2023-04-10T19:19:10;97627.31;;;15.99;41.01
22181;BME280;11256;50.830;12.834;2023-04-10T19:24:10;97609.09;;;15.86;41.18
22181;BME280;11256;50.830;12.834;2023-04-10T19:29:11;97606.50;;;15.81;41.05
22181;BME280;11256;50.830;12.834;2023-04-10T19:34:12;97602.97;;;15.80;41.39
22181;BME280;11256;50.830;12.834;2023-04-10T19:39:12;97593.56;;;15.64;41.45
22181;BME280;11256;50.830;12.834;2023-04-10T19:44:13;97579.44;;;15.62;41.53
22181;BME280;11256;50.830;12.834;2023-04-10T19:49:13;97562.78;;;15.42;41.22
22181;BME280;11256;50.830;12.834;2023-04-10T19:54:13;97570.47;;;15.40;41.69
22181;BME280;11256;50.830;12.834;2023-04-10T19:59:14;97557.47;;;15.37;41.87
22181;BME280;11256;50.830;12.834;2023-04-10T20:04:14;97525.34;;;15.12;41.87
22181;BME280;11256;50.830;12.834;2023-04-10T20:09:17;97540.09;;;15.11;41.89
22181;BME280;11256;50.830;12.834;2023-04-10T20:14:18;97520.66;;;15.04;42.30
22181;BME280;11256;50.830;12.834;2023-04-10T20:19:18;97516.06;;;14.91;42.18
22181;BME280;11256;50.830;12.834;2023-04-10T20:24:18;97508.00;;;14.86;42.47
22181;BME280;11256;50.830;12.834;2023-04-10T20:29:19;97508.13;;;14.81;42.66
22181;BME280;11256;50.830;12.834;2023-04-10T20:34:19;97494.78;;;14.71;42.53
22181;BME280;11256;50.830;12.834;2023-04-10T20:39:21;97500.97;;;14.63;42.82
22181;BME280;11256;50.830;12.834;2023-04-10T20:44:21;97484.84;;;14.53;42.83
22181;BME280;11256;50.830;12.834;2023-04-10T20:49:22;97475.41;;;14.37;43.00
22181;BME280;11256;50.830;12.834;2023-04-10T20:54:24;97478.25;;;14.32;43.20
22181;BME280;11256;50.830;12.834;2023-04-10T20:59:25;97475.81;;;14.22;43.23
22181;BME280;11256;50.830;12.834;2023-04-10T21:04:25;97468.81;;;14.16;43.50
22181;BME280;11256;50.830;12.834;2023-04-10T21:09:26;97443.66;;;13.97;43.74
22181;BME280;11256;50.830;12.834;2023-04-10T21:14:26;97460.00;;;13.97;43.65
22181;BME280;11256;50.830;12.834;2023-04-10T21:19:26;97470.91;;;13.97;43.91
22181;BME280;11256;50.830;12.834;2023-04-10T21:24:27;97463.97;;;13.91;43.97
22181;BME280;11256;50.830;12.834;2023-04-10T21:29:28;97460.63;;;13.80;44.02
22181;BME280;11256;50.830;12.834;2023-04-10T21:34:29;97420.88;;;13.44;44.90
22181;BME280;11256;50.830;12.834;2023-04-10T21:39:29;97444.06;;;13.55;44.64
22181;BME280;11256;50.830;12.834;2023-04-10T21:44:29;97453.53;;;13.57;44.66
22181;BME280;11256;50.830;12.834;2023-04-10T21:49:30;97446.78;;;13.55;44.88
22181;BME280;11256;50.830;12.834;2023-04-10T21:54:30;97434.00;;;13.42;44.81
22181;BME280;11256;50.830;12.834;2023-04-10T21:59:30;97430.16;;;13.43;44.93
22181;BME280;11256;50.830;12.834;2023-04-10T22:04:31;97418.38;;;13.34;45.00
22181;BME280;11256;50.830;12.834;2023-04-10T22:09:31;97405.69;;;13.29;45.08
22181;BME280;11256;50.830;12.834;2023-04-10T22:14:32;97393.00;;;13.25;44.93
22181;BME280;11256;50.830;12.834;2023-04-10T22:19:32;97390.97;;;13.17;45.10
22181;BME280;11256;50.830;12.834;2023-04-10T22:24:32;97370.44;;;13.11;45.37
22181;BME280;11256;50.830;12.834;2023-04-10T22:29:34;97370.97;;;12.99;45.39
22181;BME280;11256;50.830;12.834;2023-04-10T22:34:35;97374.47;;;13.00;45.37
22181;BME280;11256;50.830;12.834;2023-04-10T22:39:35;97364.78;;;12.94;45.65
22181;BME280;11256;50.830;12.834;2023-04-10T22:44:35;97364.72;;;12.99;45.80
22181;BME280;11256;50.830;12.834;2023-04-10T22:49:36;97359.25;;;12.85;46.05
22181;BME280;11256;50.830;12.834;2023-04-10T22:54:36;97335.97;;;12.79;46.13
22181;BME280;11256;50.830;12.834;2023-04-10T22:59:36;97329.94;;;12.69;46.10
22181;BME280;11256;50.830;12.834;2023-04-10T23:04:37;97306.78;;;12.58;46.05
22181;BME280;11256;50.830;12.834;2023-04-10T23:09:37;97312.81;;;12.55;46.53
22181;BME280;11256;50.830;12.834;2023-04-10T23:14:37;97291.28;;;12.45;46.43
22181;BME280;11256;50.830;12.834;2023-04-10T23:19:38;97291.91;;;12.42;46.43
22181;BME280;11256;50.830;12.834;2023-04-10T23:24:38;97265.59;;;12.24;46.67
22181;BME280;11256;50.830;12.834;2023-04-10T23:29:38;97280.59;;;12.35;46.44
22181;BME280;11256;50.830;12.834;2023-04-10T23:34:39;97263.41;;;12.26;46.58
22181;BME280;11256;50.830;12.834;2023-04-10T23:39:39;97243.78;;;12.15;46.51
22181;BME280;11256;50.830;12.834;2023-04-10T23:44:39;97217.13;;;12.17;46.66
22181;BME280;11256;50.830;12.834;2023-04-10T23:49:40;97223.25;;;12.23;46.52
22181;BME280;11256;50.830;12.834;2023-04-10T23:54:40;97207.88;;;12.18;46.41
22181;BME280;11256;50.830;12.834;2023-04-10T23:59:42;97182.81;;;12.08;46.35
